Time;durP1;ratioP1;P1;durP2;ratioP2;P2;SDS_P1;SDS_P2;PMS_P1;PMS_P2;Temp;Humidity;BMP_temperature;BMP_pressure;BME280_temperature;BME280_humidity;BME280_pressure;Samples;Min_cycle;Max_cycle;Signal;HPM_P1;HPM_P2
2023/05/07 00:00:18;;;;;;;17.40;15.07;;;15.10;99.90;;;;;;5026131;28;20040;-72
2023/05/07 00:02:45;;;;;;;17.10;15.27;;;15.10;99.90;;;;;;5023775;28;20038;-72
2023/05/07 00:05:11;;;;;;;17.02;15.15;;;15.00;99.90;;;;;;5027516;28;20269;-73
2023/05/07 00:07:36;;;;;;;18.77;16.88;;;15.00;99.90;;;;;;5027698;28;20777;-72
2023/05/07 00:10:03;;;;;;;19.33;17.27;;;14.90;99.90;;;;;;5019996;28;20197;-72
2023/05/07 00:12:31;;;;;;;19.75;17.75;;;14.90;99.90;;;;;;5020886;28;20043;-72
2023/05/07 00:14:57;;;;;;;19.75;17.67;;;14.90;99.90;;;;;;5023319;28;20038;-72
2023/05/07 00:17:23;;;;;;;19.08;17.08;;;14.80;99.90;;;;;;5025549;28;20045;-71
2023/05/07 00:19:48;;;;;;;20.00;18.00;;;14.90;99.90;;;;;;5024924;28;20042;-72
2023/05/07 00:22:14;;;;;;;20.55;18.33;;;14.80;99.90;;;;;;5023508;28;20058;-72
2023/05/07 00:24:43;;;;;;;19.80;17.77;;;14.80;99.90;;;;;;5026233;28;20049;-72
2023/05/07 00:27:09;;;;;;;20.15;18.10;;;14.80;99.90;;;;;;5024196;28;20192;-72
2023/05/07 00:29:35;;;;;;;21.25;19.08;;;14.70;99.90;;;;;;5026540;28;20116;-72
2023/05/07 00:32:01;;;;;;;24.57;19.50;;;14.70;99.90;;;;;;5018467;28;20121;-72
2023/05/07 00:34:27;;;;;;;20.92;18.67;;;14.60;99.90;;;;;;5024654;28;20203;-72
2023/05/07 00:36:53;;;;;;;21.02;18.83;;;14.60;99.90;;;;;;5028809;28;20042;-72
2023/05/07 00:39:18;;;;;;;21.65;19.38;;;14.60;99.90;;;;;;5025556;28;20063;-72
2023/05/07 00:41:44;;;;;;;21.02;18.83;;;14.60;99.90;;;;;;5023879;28;20045;-71
2023/05/07 00:44:10;;;;;;;22.25;20.00;;;14.50;99.90;;;;;;5029873;28;20050;-72
2023/05/07 00:46:36;;;;;;;20.60;18.55;;;14.40;99.90;;;;;;5026662;28;20057;-72
2023/05/07 00:49:02;;;;;;;21.25;19.00;;;14.40;99.90;;;;;;5029583;28;20047;-72
2023/05/07 00:51:28;;;;;;;21.52;19.33;;;14.40;99.90;;;;;;5020349;28;20046;-72
2023/05/07 00:53:54;;;;;;;21.73;19.13;;;14.30;99.90;;;;;;5015557;28;20087;-72
2023/05/07 00:56:23;;;;;;;22.02;19.63;;;14.30;99.90;;;;;;5020569;28;20041;-71
2023/05/07 00:58:49;;;;;;;23.00;20.70;;;14.30;99.90;;;;;;5022260;28;20128;-71
2023/05/07 01:01:16;;;;;;;22.38;19.90;;;14.20;99.90;;;;;;5022173;28;20041;-72
2023/05/07 01:03:42;;;;;;;21.33;19.25;;;14.20;99.90;;;;;;5025319;28;20081;-72
2023/05/07 01:06:09;;;;;;;23.38;20.88;;;14.20;99.90;;;;;;5024210;28;20041;-72
2023/05/07 01:08:36;;;;;;;22.60;20.42;;;14.20;99.90;;;;;;5022981;28;20048;-72
2023/05/07 01:11:03;;;;;;;23.50;20.83;;;14.10;99.90;;;;;;5019551;28;20045;-71
2023/05/07 01:13:29;;;;;;;23.15;20.83;;;14.10;99.90;;;;;;5026103;28;20292;-72
2023/05/07 01:15:55;;;;;;;24.05;21.65;;;14.00;99.90;;;;;;5026336;28;20049;-72
2023/05/07 01:18:21;;;;;;;24.00;21.60;;;14.00;99.90;;;;;;5025683;28;20040;-72
2023/05/07 01:20:47;;;;;;;23.17;20.77;;;13.90;99.90;;;;;;5024010;28;20049;-73
2023/05/07 01:23:13;;;;;;;25.08;22.50;;;13.90;99.90;;;;;;5026300;28;20476;-71
2023/05/07 01:25:39;;;;;;;24.65;22.13;;;13.80;99.90;;;;;;5016372;28;20049;-71
2023/05/07 01:28:05;;;;;;;24.17;21.73;;;13.80;99.90;;;;;;5021798;28;20052;-72
2023/05/07 01:30:32;;;;;;;25.57;23.07;;;13.70;99.90;;;;;;5027169;28;20141;-72
2023/05/07 01:33:04;;;;;;;26.02;23.25;;;13.70;99.90;;;;;;5025640;28;20736;-72
2023/05/07 01:35:35;;;;;;;24.52;22.02;;;13.70;99.90;;;;;;5018048;28;20087;-71
2023/05/07 01:38:04;;;;;;;26.13;23.42;;;13.70;99.90;;;;;;5025259;28;20038;-71
2023/05/07 01:40:30;;;;;;;26.42;23.73;;;13.60;99.90;;;;;;5020062;28;20041;-71
2023/05/07 01:42:56;;;;;;;26.63;23.90;;;13.60;99.90;;;;;;5020590;28;20045;-71
2023/05/07 01:45:22;;;;;;;26.55;23.75;;;13.60;99.90;;;;;;5023379;28;20738;-72
2023/05/07 01:47:49;;;;;;;27.98;24.75;;;13.60;99.90;;;;;;5026668;28;20037;-72
2023/05/07 01:50:16;;;;;;;27.77;24.88;;;13.60;99.90;;;;;;5022432;28;20827;-72
2023/05/07 01:52:43;;;;;;;27.10;24.30;;;13.50;99.90;;;;;;5024848;28;20048;-72
2023/05/07 01:55:09;;;;;;;28.25;25.27;;;13.50;99.90;;;;;;5020381;28;20041;-72
2023/05/07 01:57:35;;;;;;;31.38;26.70;;;13.50;99.90;;;;;;5021416;28;20053;-71
2023/05/07 02:00:02;;;;;;;30.45;27.25;;;13.40;99.90;;;;;;5023609;28;20044;-72
2023/05/07 02:02:28;;;;;;;30.45;27.15;;;13.40;99.90;;;;;;5018358;28;20128;-72
2023/05/07 02:04:53;;;;;;;31.27;28.00;;;13.40;99.90;;;;;;5024439;28;20049;-72
2023/05/07 02:07:19;;;;;;;33.10;29.20;;;13.40;99.90;;;;;;5017746;28;20049;-72
2023/05/07 02:09:45;;;;;;;31.58;28.35;;;13.30;99.90;;;;;;5016414;28;20513;-73
2023/05/07 02:12:10;;;;;;;32.08;28.67;;;13.30;99.90;;;;;;5021235;28;20025;-72
2023/05/07 02:14:36;;;;;;;33.53;30.02;;;13.30;99.90;;;;;;5018591;28;20084;-72
2023/05/07 02:17:02;;;;;;;33.08;29.58;;;13.30;99.90;;;;;;5022231;28;20142;-73
2023/05/07 02:19:27;;;;;;;34.08;30.10;;;13.30;99.90;;;;;;5024035;28;20179;-72
2023/05/07 02:21:53;;;;;;;32.58;29.17;;;13.30;99.90;;;;;;5026588;28;20075;-71
2023/05/07 02:24:19;;;;;;;33.53;29.90;;;13.30;99.90;;;;;;5025613;28;20034;-72
2023/05/07 02:26:44;;;;;;;33.13;29.63;;;13.20;99.90;;;;;;5027823;28;20054;-70
2023/05/07 02:29:10;;;;;;;36.17;32.30;;;13.20;99.90;;;;;;5016425;28;20041;-72
2023/05/07 02:31:35;;;;;;;35.35;31.48;;;13.20;99.90;;;;;;5023172;28;20045;-72
2023/05/07 02:34:01;;;;;;;33.80;30.33;;;13.20;99.90;;;;;;5015984;28;20057;-72
2023/05/07 02:36:27;;;;;;;39.08;32.22;;;13.20;99.90;;;;;;5024413;28;20064;-71
2023/05/07 02:38:53;;;;;;;37.20;33.17;;;13.20;99.90;;;;;;5017428;28;20069;-72
2023/05/07 02:41:18;;;;;;;35.67;32.03;;;13.10;99.90;;;;;;5021059;28;20037;-71
2023/05/07 02:43:44;;;;;;;36.95;32.97;;;13.10;99.90;;;;;;5018799;28;20064;-72
2023/05/07 02:46:10;;;;;;;37.85;33.80;;;13.10;99.90;;;;;;5018700;28;20056;-72
2023/05/07 02:48:36;;;;;;;37.88;33.85;;;13.00;99.90;;;;;;5020287;28;20072;-72
2023/05/07 02:51:02;;;;;;;38.22;34.15;;;13.00;99.90;;;;;;5023337;28;20124;-72
2023/05/07 02:53:29;;;;;;;39.03;35.03;;;13.10;99.90;;;;;;5025075;28;20041;-71
2023/05/07 02:55:59;;;;;;;39.15;35.05;;;13.00;99.90;;;;;;5018917;28;20045;-72
2023/05/07 02:58:25;;;;;;;38.50;34.45;;;13.00;99.90;;;;;;5021474;28;20034;-72
2023/05/07 03:00:51;;;;;;;38.63;34.50;;;13.00;99.90;;;;;;5021790;28;20088;-72
2023/05/07 03:03:16;;;;;;;37.88;33.88;;;13.00;99.90;;;;;;5023980;28;20049;-72
2023/05/07 03:05:42;;;;;;;39.05;34.95;;;13.00;99.90;;;;;;5023634;28;20519;-71
2023/05/07 03:08:08;;;;;;;38.72;34.35;;;13.00;99.90;;;;;;5022430;28;20106;-72
2023/05/07 03:10:35;;;;;;;39.60;34.63;;;13.00;99.90;;;;;;5021295;28;20052;-70
2023/05/07 03:13:01;;;;;;;38.25;34.08;;;13.00;99.90;;;;;;5013926;28;20088;-73
2023/05/07 03:15:26;;;;;;;37.90;33.97;;;13.00;99.90;;;;;;5020477;28;20049;-73
2023/05/07 03:17:52;;;;;;;37.33;33.28;;;13.00;99.90;;;;;;5020319;28;20059;-72
2023/05/07 03:20:18;;;;;;;38.28;34.38;;;13.00;99.90;;;;;;5022273;28;20124;-71
2023/05/07 03:22:43;;;;;;;37.58;33.20;;;13.00;99.90;;;;;;5020339;28;20053;-72
2023/05/07 03:25:10;;;;;;;36.75;32.85;;;12.90;99.90;;;;;;5022847;28;20041;-72
2023/05/07 03:27:35;;;;;;;37.03;33.22;;;12.90;99.90;;;;;;5014654;28;20064;-73
2023/05/07 03:30:01;;;;;;;35.70;32.00;;;12.90;99.90;;;;;;5023058;28;20041;-72
2023/05/07 03:32:26;;;;;;;36.15;32.35;;;12.80;99.90;;;;;;5021419;28;20132;-71
2023/05/07 03:34:52;;;;;;;35.03;31.20;;;12.90;99.90;;;;;;5023369;28;20041;-72
2023/05/07 03:37:18;;;;;;;36.17;32.25;;;12.80;99.90;;;;;;5020295;28;20061;-72
2023/05/07 03:39:44;;;;;;;34.33;30.70;;;12.80;99.90;;;;;;5022495;28;20033;-72
2023/05/07 03:42:09;;;;;;;35.92;32.13;;;12.80;99.90;;;;;;5018797;28;20103;-72
2023/05/07 03:44:36;;;;;;;34.67;30.98;;;12.70;99.90;;;;;;5020597;28;20733;-72
2023/05/07 03:47:02;;;;;;;33.38;29.88;;;12.80;99.90;;;;;;5021638;28;20045;-73
2023/05/07 03:49:28;;;;;;;36.05;32.25;;;12.80;99.90;;;;;;5022072;28;20049;-72
2023/05/07 03:51:53;;;;;;;33.97;30.38;;;12.70;99.90;;;;;;5020617;28;21563;-72
2023/05/07 03:54:19;;;;;;;34.63;31.05;;;12.70;99.90;;;;;;5021535;28;20042;-72
2023/05/07 03:56:45;;;;;;;33.13;29.73;;;12.70;99.90;;;;;;5017953;28;20772;-72
2023/05/07 03:59:10;;;;;;;31.60;28.27;;;12.70;99.90;;;;;;5021579;28;20049;-71
2023/05/07 04:01:36;;;;;;;32.13;28.95;;;12.80;99.90;;;;;;5021619;28;20045;-72
2023/05/07 04:04:02;;;;;;;32.50;29.20;;;12.70;99.90;;;;;;5024770;28;20647;-72
2023/05/07 04:06:28;;;;;;;32.63;29.13;;;12.70;99.90;;;;;;5023085;28;20389;-73
2023/05/07 04:08:54;;;;;;;32.50;29.30;;;12.70;99.90;;;;;;5019295;28;20296;-72
2023/05/07 04:11:20;;;;;;;32.65;28.63;;;12.70;99.90;;;;;;5019609;28;20435;-73
2023/05/07 04:13:45;;;;;;;32.42;28.98;;;12.70;99.90;;;;;;5024074;28;20037;-72
2023/05/07 04:16:11;;;;;;;31.08;27.77;;;12.60;99.90;;;;;;5022360;28;20053;-73
2023/05/07 04:18:37;;;;;;;30.65;27.58;;;12.70;99.90;;;;;;5019067;28;20064;-73
2023/05/07 04:21:03;;;;;;;32.83;27.85;;;12.60;99.90;;;;;;5023915;28;20053;-73
2023/05/07 04:23:29;;;;;;;31.35;28.00;;;12.60;99.90;;;;;;5022197;28;20053;-72
2023/05/07 04:25:55;;;;;;;31.30;28.02;;;12.60;99.90;;;;;;5022218;28;20504;-71
2023/05/07 04:28:20;;;;;;;29.67;26.75;;;12.60;99.90;;;;;;5016370;28;20033;-72
2023/05/07 04:30:46;;;;;;;30.25;27.25;;;12.60;99.90;;;;;;5025402;28;20545;-71
2023/05/07 04:33:13;;;;;;;29.48;26.38;;;12.60;99.90;;;;;;5026108;28;20382;-72
2023/05/07 04:35:39;;;;;;;31.00;27.80;;;12.60;99.90;;;;;;5026813;28;20045;-72
2023/05/07 04:38:04;;;;;;;30.88;27.67;;;12.60;99.90;;;;;;5022762;28;20053;-71
2023/05/07 04:40:30;;;;;;;30.23;27.17;;;12.60;99.90;;;;;;5029657;28;20037;-72
2023/05/07 04:42:55;;;;;;;28.90;25.95;;;12.60;99.90;;;;;;5027911;28;20464;-73
2023/05/07 04:45:21;;;;;;;31.33;27.50;;;12.60;99.90;;;;;;5026418;28;20083;-72
2023/05/07 04:47:47;;;;;;;30.20;27.17;;;12.60;99.90;;;;;;5026461;28;20099;-72
2023/05/07 04:50:13;;;;;;;30.10;26.98;;;12.60;99.90;;;;;;5028175;28;20424;-73
2023/05/07 04:52:38;;;;;;;31.77;28.52;;;12.60;99.90;;;;;;5020414;28;20041;-73
2023/05/07 04:55:04;;;;;;;30.90;27.77;;;12.60;99.90;;;;;;5022742;28;20045;-74
2023/05/07 04:57:30;;;;;;;31.38;28.13;;;12.60;99.90;;;;;;5024455;28;20056;-73
2023/05/07 04:59:55;;;;;;;29.05;26.08;;;12.60;99.90;;;;;;5026383;28;20041;-72
2023/05/07 05:02:21;;;;;;;30.27;27.20;;;12.60;99.90;;;;;;5027328;28;20045;-72
2023/05/07 05:04:47;;;;;;;30.63;27.42;;;12.70;99.90;;;;;;5023379;28;20073;-73
2023/05/07 05:07:13;;;;;;;31.13;28.00;;;12.70;99.90;;;;;;5024277;28;20045;-73
2023/05/07 05:09:38;;;;;;;29.73;26.77;;;12.60;99.90;;;;;;5018512;28;20053;-72
2023/05/07 05:12:07;;;;;;;30.83;27.70;;;12.60;99.90;;;;;;5026098;28;20082;-72
2023/05/07 05:14:32;;;;;;;31.02;27.90;;;12.60;99.90;;;;;;5022650;28;20045;-74
2023/05/07 05:16:58;;;;;;;33.80;29.73;;;12.70;99.90;;;;;;5024078;28;20045;-73
2023/05/07 05:19:23;;;;;;;32.47;29.25;;;12.70;99.90;;;;;;5026172;28;20034;-72
2023/05/07 05:21:49;;;;;;;31.88;28.58;;;12.70;99.90;;;;;;5023608;28;20187;-72
2023/05/07 05:24:21;;;;;;;32.03;28.65;;;12.60;99.90;;;;;;5026526;28;20136;-72
2023/05/07 05:26:46;;;;;;;31.40;28.20;;;12.70;99.90;;;;;;5023428;28;20608;-71
2023/05/07 05:29:12;;;;;;;32.40;29.10;;;12.70;99.90;;;;;;5024031;28;20499;-73
2023/05/07 05:31:38;;;;;;;33.70;30.10;;;12.70;99.90;;;;;;5015753;28;20400;-70
2023/05/07 05:34:03;;;;;;;32.28;29.05;;;12.70;99.90;;;;;;5021590;28;20041;-73
2023/05/07 05:36:30;;;;;;;33.28;29.92;;;12.70;99.90;;;;;;5023002;28;20041;-72
2023/05/07 05:38:56;;;;;;;32.70;29.38;;;12.70;99.90;;;;;;5018850;28;20076;-73
2023/05/07 05:41:21;;;;;;;32.63;29.35;;;12.70;99.90;;;;;;5021014;28;20128;-72
2023/05/07 05:43:47;;;;;;;33.20;29.73;;;12.80;99.90;;;;;;5025149;28;20476;-73
2023/05/07 05:46:12;;;;;;;34.60;30.88;;;12.80;99.90;;;;;;5023622;28;20061;-72
2023/05/07 05:48:38;;;;;;;33.75;30.20;;;12.80;99.90;;;;;;5024515;28;20128;-72
2023/05/07 05:51:04;;;;;;;33.97;30.25;;;12.80;99.90;;;;;;5024395;28;20481;-71
2023/05/07 05:53:29;;;;;;;33.92;30.42;;;12.80;99.90;;;;;;5022714;28;20480;-72
2023/05/07 05:55:55;;;;;;;34.60;31.10;;;12.80;99.90;;;;;;5023520;28;20060;-71
2023/05/07 05:58:21;;;;;;;34.40;30.77;;;12.80;99.90;;;;;;5025471;28;20045;-73
2023/05/07 06:00:48;;;;;;;35.17;31.42;;;12.90;99.90;;;;;;5022954;28;20053;-72
2023/05/07 06:03:13;;;;;;;35.20;31.45;;;12.90;99.90;;;;;;5022050;28;20043;-72
2023/05/07 06:05:39;;;;;;;35.88;32.13;;;12.90;99.90;;;;;;5019838;28;20041;-72
2023/05/07 06:08:05;;;;;;;35.10;31.48;;;12.90;99.90;;;;;;5024660;28;20112;-72
2023/05/07 06:10:30;;;;;;;35.53;31.77;;;12.90;99.90;;;;;;5018921;28;20057;-72
2023/05/07 06:12:56;;;;;;;35.58;31.67;;;13.00;99.90;;;;;;5022032;28;20057;-72
2023/05/07 06:15:22;;;;;;;35.42;31.65;;;13.00;99.90;;;;;;5025096;28;20050;-73
2023/05/07 06:17:48;;;;;;;35.65;32.05;;;13.00;99.90;;;;;;5025818;28;20128;-72
2023/05/07 06:20:14;;;;;;;34.38;30.77;;;13.10;99.90;;;;;;5028657;28;20128;-70
2023/05/07 06:22:40;;;;;;;35.45;31.75;;;13.10;99.90;;;;;;5023501;28;20192;-70
2023/05/07 06:25:06;;;;;;;35.40;31.60;;;13.20;99.90;;;;;;5022637;28;20464;-70
2023/05/07 06:27:34;;;;;;;35.00;31.25;;;13.20;99.90;;;;;;5025634;28;20051;-70
2023/05/07 06:30:03;;;;;;;35.97;32.17;;;13.20;99.90;;;;;;5026851;28;20160;-70
2023/05/07 06:32:29;;;;;;;38.50;32.28;;;13.20;99.90;;;;;;5023757;28;20041;-70
2023/05/07 06:34:55;;;;;;;35.30;31.80;;;13.10;99.90;;;;;;5016337;28;20049;-70
2023/05/07 06:37:21;;;;;;;37.80;33.78;;;13.20;99.90;;;;;;5027297;28;20704;-69
2023/05/07 06:39:46;;;;;;;35.85;32.25;;;13.10;99.90;;;;;;5023472;28;20045;-70
2023/05/07 06:42:12;;;;;;;38.10;33.47;;;13.10;99.90;;;;;;5014611;28;20562;-70
2023/05/07 06:44:37;;;;;;;36.33;32.47;;;13.10;99.90;;;;;;5024342;28;20394;-70
2023/05/07 06:47:05;;;;;;;36.45;32.60;;;13.10;99.90;;;;;;5017514;28;20111;-70
2023/05/07 06:49:31;;;;;;;37.58;33.75;;;13.10;99.90;;;;;;5024373;28;20069;-70
2023/05/07 06:51:57;;;;;;;36.08;32.28;;;13.10;99.90;;;;;;5024798;28;20045;-70
2023/05/07 06:54:23;;;;;;;37.17;33.30;;;13.10;99.90;;;;;;5017010;28;20730;-70
2023/05/07 06:56:48;;;;;;;37.70;33.53;;;13.10;99.90;;;;;;5021028;28;20045;-70
2023/05/07 06:59:14;;;;;;;38.97;33.88;;;13.10;99.90;;;;;;5021281;28;20576;-70
2023/05/07 07:01:40;;;;;;;36.55;32.67;;;13.10;99.90;;;;;;5022517;28;20045;-70
2023/05/07 07:04:06;;;;;;;37.80;33.85;;;13.20;99.90;;;;;;5021183;28;20037;-70
2023/05/07 07:06:31;;;;;;;37.55;33.50;;;13.20;99.90;;;;;;5023132;28;20045;-70
2023/05/07 07:08:58;;;;;;;38.13;33.80;;;13.20;99.90;;;;;;5022205;28;20041;-70
2023/05/07 07:11:23;;;;;;;39.70;35.50;;;13.20;99.90;;;;;;5014183;28;20056;-70
2023/05/07 07:13:50;;;;;;;38.45;34.42;;;13.30;99.90;;;;;;5020359;28;20029;-70
2023/05/07 07:16:16;;;;;;;37.40;33.17;;;13.30;99.90;;;;;;5019323;28;20105;-70
2023/05/07 07:18:42;;;;;;;37.35;33.35;;;13.40;99.90;;;;;;5017591;28;20120;-70
2023/05/07 07:21:07;;;;;;;38.35;33.63;;;13.40;99.90;;;;;;5023942;28;20344;-72
2023/05/07 07:23:36;;;;;;;37.63;33.60;;;13.40;99.90;;;;;;5019048;28;20042;-71
2023/05/07 07:26:01;;;;;;;39.95;34.47;;;13.40;99.90;;;;;;5019367;28;20440;-70
2023/05/07 07:28:30;;;;;;;38.08;34.08;;;13.50;99.90;;;;;;5020560;28;20045;-73
2023/05/07 07:30:55;;;;;;;37.35;32.30;;;13.50;99.90;;;;;;5023935;28;20087;-71
2023/05/07 07:33:21;;;;;;;37.78;33.83;;;13.40;99.90;;;;;;5020689;28;20045;-69
2023/05/07 07:35:46;;;;;;;38.30;34.30;;;13.50;99.90;;;;;;5013097;28;20441;-71
2023/05/07 07:38:14;;;;;;;37.33;33.08;;;13.50;99.90;;;;;;5024590;28;20045;-71
2023/05/07 07:40:40;;;;;;;38.38;34.20;;;13.40;99.90;;;;;;5024914;28;20041;-71
2023/05/07 07:43:06;;;;;;;36.22;32.35;;;13.40;99.90;;;;;;5024617;28;20045;-70
2023/05/07 07:45:31;;;;;;;36.55;32.65;;;13.50;99.90;;;;;;5025771;28;20040;-70
2023/05/07 07:47:57;;;;;;;36.85;32.90;;;13.50;99.90;;;;;;5024468;28;20056;-71
2023/05/07 07:50:23;;;;;;;36.25;32.42;;;13.50;99.90;;;;;;5024192;28;20052;-69
2023/05/07 07:52:48;;;;;;;35.90;32.08;;;13.60;99.90;;;;;;5024854;28;20583;-69
2023/05/07 07:55:17;;;;;;;37.30;33.47;;;13.70;99.90;;;;;;5019003;28;20577;-71
2023/05/07 07:57:43;;;;;;;36.92;33.05;;;13.80;99.90;;;;;;5023152;28;20053;-70
2023/05/07 08:00:09;;;;;;;36.70;32.80;;;13.80;99.90;;;;;;5019495;28;20029;-70
2023/05/07 08:02:35;;;;;;;36.50;32.78;;;13.90;99.90;;;;;;5020061;28;20041;-70
2023/05/07 08:05:01;;;;;;;36.38;32.65;;;14.10;99.90;;;;;;5018458;28;20044;-70
2023/05/07 08:07:26;;;;;;;36.65;31.58;;;14.10;99.90;;;;;;5023401;28;20168;-70
2023/05/07 08:09:52;;;;;;;34.65;30.95;;;14.30;99.90;;;;;;5022624;28;20750;-70
2023/05/07 08:12:18;;;;;;;34.60;31.00;;;14.40;99.90;;;;;;5023206;28;20056;-70
2023/05/07 08:14:44;;;;;;;34.25;30.75;;;14.40;99.90;;;;;;5028510;28;20041;-70
2023/05/07 08:17:10;;;;;;;34.20;30.73;;;14.50;99.90;;;;;;5024294;28;20054;-70
2023/05/07 08:19:36;;;;;;;36.10;32.20;;;14.50;99.90;;;;;;5029388;28;20041;-70
2023/05/07 08:22:04;;;;;;;34.63;30.92;;;14.60;99.90;;;;;;5028673;28;20057;-70
2023/05/07 08:24:30;;;;;;;33.42;30.13;;;14.60;99.90;;;;;;5030487;28;20148;-70
2023/05/07 08:26:55;;;;;;;34.10;30.50;;;14.60;99.90;;;;;;5024868;28;20080;-70
2023/05/07 08:29:21;;;;;;;32.78;29.35;;;14.70;99.90;;;;;;5026871;28;20060;-70
2023/05/07 08:31:47;;;;;;;32.35;29.02;;;14.70;99.90;;;;;;5022578;28;20068;-70
2023/05/07 08:34:12;;;;;;;32.00;28.58;;;14.80;99.90;;;;;;5023133;28;20037;-70
2023/05/07 08:36:38;;;;;;;31.95;28.75;;;14.80;99.90;;;;;;5020778;28;20709;-70
2023/05/07 08:39:07;;;;;;;31.67;28.42;;;14.80;99.90;;;;;;5025769;28;20034;-69
2023/05/07 08:41:33;;;;;;;31.30;28.13;;;14.80;99.90;;;;;;5020149;28;20366;-70
2023/05/07 08:44:02;;;;;;;32.63;29.02;;;14.80;99.90;;;;;;5030521;28;20041;-70
2023/05/07 08:46:32;;;;;;;30.42;27.33;;;14.90;99.90;;;;;;5021389;28;20416;-69
2023/05/07 08:48:58;;;;;;;31.50;28.40;;;14.90;99.90;;;;;;5022945;28;20037;-70
2023/05/07 08:51:23;;;;;;;30.58;27.38;;;15.00;99.90;;;;;;5017570;28;20489;-70
2023/05/07 08:53:50;;;;;;;31.40;28.25;;;15.00;99.90;;;;;;5029702;28;20064;-70
2023/05/07 08:56:16;;;;;;;30.10;27.13;;;15.00;99.90;;;;;;5022257;28;20041;-70
2023/05/07 08:58:43;;;;;;;30.20;27.27;;;15.20;99.90;;;;;;5011348;28;20119;-71
2023/05/07 09:01:14;;;;;;;28.73;25.80;;;15.20;99.90;;;;;;5022559;28;20556;-71
2023/05/07 09:03:41;;;;;;;30.42;27.23;;;15.30;99.90;;;;;;5014174;28;20413;-70
2023/05/07 09:06:07;;;;;;;29.53;26.53;;;15.50;99.90;;;;;;5023504;28;20699;-71
2023/05/07 09:08:33;;;;;;;28.55;25.63;;;15.50;99.90;;;;;;5023977;28;20378;-74
2023/05/07 09:10:59;;;;;;;28.47;25.60;;;15.60;99.90;;;;;;5020705;28;20491;-72
2023/05/07 09:13:25;;;;;;;30.35;27.17;;;15.70;99.90;;;;;;5020358;28;20297;-71
2023/05/07 09:15:51;;;;;;;27.88;25.15;;;15.80;99.90;;;;;;5011653;28;20042;-71
2023/05/07 09:18:16;;;;;;;27.73;24.92;;;15.90;99.90;;;;;;5015525;28;20052;-71
2023/05/07 09:20:45;;;;;;;28.30;25.60;;;15.90;99.90;;;;;;5011019;28;20387;-71
2023/05/07 09:23:10;;;;;;;28.55;25.67;;;15.90;99.90;;;;;;5022599;28;20052;-71
2023/05/07 09:25:36;;;;;;;27.20;24.60;;;16.00;99.90;;;;;;5027900;28;20045;-71
2023/05/07 09:28:04;;;;;;;28.75;24.98;;;16.10;99.90;;;;;;5024463;28;20041;-71
2023/05/07 09:30:30;;;;;;;;;;;16.20;99.90;;;;;;5030233;28;20160;-71
2023/05/07 09:32:57;;;;;;;27.40;24.57;;;16.30;99.90;;;;;;5027614;28;19925;-72
2023/05/07 09:35:27;;;;;;;;;;;16.50;99.90;;;;;;5021828;28;20315;-70
2023/05/07 09:37:53;;;;;;;25.98;23.33;;;16.60;99.90;;;;;;5023418;28;19976;-70
2023/05/07 09:40:23;;;;;;;25.27;22.88;;;16.60;99.90;;;;;;5020584;28;20033;-74
2023/05/07 09:42:49;;;;;;;27.27;24.40;;;16.60;99.90;;;;;;5022277;28;20049;-71
2023/05/07 09:45:16;;;;;;;26.52;23.92;;;16.70;99.90;;;;;;5027432;28;20041;-70
2023/05/07 09:47:45;;;;;;;26.08;23.48;;;16.80;99.90;;;;;;5025716;28;20665;-72
2023/05/07 09:50:15;;;;;;;25.20;22.80;;;16.90;99.90;;;;;;5027543;28;20123;-75
2023/05/07 09:52:42;;;;;;;26.17;23.58;;;17.00;99.90;;;;;;5028728;28;20110;-70
2023/05/07 09:55:08;;;;;;;25.45;22.90;;;17.10;99.90;;;;;;5026905;28;20076;-73
2023/05/07 09:57:35;;;;;;;26.08;23.55;;;17.10;99.90;;;;;;5024374;28;20147;-73
2023/05/07 10:00:04;;;;;;;25.35;22.75;;;17.10;99.90;;;;;;5027371;28;20111;-71
2023/05/07 10:02:31;;;;;;;26.38;23.67;;;17.20;99.90;;;;;;5027698;28;20041;-74
2023/05/07 10:04:57;;;;;;;;;;;17.20;99.90;;;;;;5028914;28;20037;-71
2023/05/07 10:07:25;;;;;;;24.17;21.77;;;17.30;99.90;;;;;;5026178;28;19921;-73
2023/05/07 10:09:57;;;;;;;26.20;23.65;;;17.20;99.90;;;;;;5027849;28;20543;-72
2023/05/07 10:12:23;;;;;;;26.17;23.58;;;17.20;99.90;;;;;;5023239;28;20041;-71
2023/05/07 10:14:51;;;;;;;25.52;22.80;;;17.20;99.90;;;;;;5025653;28;20118;-70
2023/05/07 10:17:17;;;;;;;25.63;22.95;;;17.20;99.90;;;;;;5022589;28;20167;-71
2023/05/07 10:19:44;;;;;;;25.08;22.58;;;17.20;99.90;;;;;;5025155;28;20053;-71
2023/05/07 10:22:12;;;;;;;23.60;21.30;;;17.30;99.90;;;;;;5025041;28;20091;-71
2023/05/07 10:24:38;;;;;;;24.20;21.77;;;17.40;99.90;;;;;;5025307;28;20057;-71
2023/05/07 10:27:12;;;;;;;24.85;22.38;;;17.50;99.90;;;;;;5025577;28;20576;-72
2023/05/07 10:30:02;;;;;;;24.75;22.25;;;17.70;99.90;;;;;;5015113;28;20053;-71
2023/05/07 10:32:32;;;;;;;24.58;22.25;;;17.80;99.90;;;;;;5025850;28;20657;-73
2023/05/07 10:35:01;;;;;;;23.90;21.52;;;17.90;99.90;;;;;;5029337;28;20132;-72
2023/05/07 10:37:28;;;;;;;23.45;21.05;;;18.00;99.90;;;;;;5026604;28;20179;-71
2023/05/07 10:39:54;;;;;;;24.67;22.27;;;18.00;99.90;;;;;;5026906;28;20041;-72
2023/05/07 10:42:20;;;;;;;24.83;22.35;;;18.10;99.90;;;;;;5026040;28;20046;-72
2023/05/07 10:44:46;;;;;;;25.30;22.73;;;18.10;99.90;;;;;;5027329;28;20045;-71
2023/05/07 10:47:13;;;;;;;23.88;21.48;;;18.10;99.90;;;;;;5022983;28;20568;-72
2023/05/07 10:49:45;;;;;;;24.00;21.70;;;18.20;99.90;;;;;;5027476;28;20503;-73
2023/05/07 10:52:20;;;;;;;24.45;22.05;;;18.20;99.90;;;;;;5014423;28;20068;-71
2023/05/07 10:54:46;;;;;;;23.88;21.58;;;18.20;99.90;;;;;;5027174;28;20443;-73
2023/05/07 10:57:31;;;;;;;25.08;22.45;;;18.20;99.90;;;;;;5025047;28;20052;-72
2023/05/07 10:59:56;;;;;;;23.05;20.75;;;18.30;99.90;;;;;;5026779;28;20081;-72
2023/05/07 11:02:22;;;;;;;24.60;22.25;;;18.30;99.90;;;;;;5026459;28;20138;-72
2023/05/07 11:05:21;;;;;;;23.08;20.80;;;18.40;99.90;;;;;;5022691;28;20059;-71
2023/05/07 11:08:02;;;;;;;23.77;21.45;;;18.30;99.90;;;;;;5018983;28;20045;-71
2023/05/07 11:10:48;;;;;;;23.20;20.90;;;18.40;99.90;;;;;;5014932;28;20049;-70
2023/05/07 11:13:15;;;;;;;22.90;20.65;;;18.40;99.90;;;;;;5022852;28;20103;-70
2023/05/07 11:15:46;;;;;;;23.10;20.90;;;18.30;99.90;;;;;;5026989;28;20041;-70
2023/05/07 11:18:17;;;;;;;23.67;21.45;;;18.30;99.90;;;;;;5021699;28;20045;-70
2023/05/07 11:20:58;;;;;;;24.48;21.90;;;18.30;99.90;;;;;;5026364;28;20064;-70
2023/05/07 11:23:33;;;;;;;23.50;21.20;;;18.20;99.90;;;;;;5025498;28;20124;-69
2023/05/07 11:26:07;;;;;;;23.40;21.05;;;18.20;99.90;;;;;;5017895;28;20486;-77
2023/05/07 11:28:37;;;;;;;23.75;21.42;;;18.30;99.90;;;;;;5023194;28;20515;-73
2023/05/07 11:31:04;;;;;;;23.55;21.25;;;18.40;99.90;;;;;;5022954;28;20116;-73
2023/05/07 11:33:33;;;;;;;23.45;21.25;;;18.50;99.90;;;;;;5026737;28;20183;-73
2023/05/07 11:35:59;;;;;;;23.38;20.77;;;18.60;99.90;;;;;;5027242;28;20071;-73
2023/05/07 11:38:25;;;;;;;22.80;20.52;;;18.70;99.90;;;;;;5027146;28;20041;-73
2023/05/07 11:40:52;;;;;;;22.13;19.95;;;18.70;99.90;;;;;;5027054;28;20047;-73
2023/05/07 11:43:18;;;;;;;23.48;21.17;;;18.70;99.90;;;;;;5017380;28;20033;-73
2023/05/07 11:45:47;;;;;;;24.23;21.83;;;18.80;99.90;;;;;;5024291;28;20130;-73
2023/05/07 11:48:16;;;;;;;22.90;20.63;;;18.80;99.90;;;;;;5025408;28;20164;-73
2023/05/07 11:50:52;;;;;;;23.23;21.00;;;18.80;99.90;;;;;;5027568;28;20049;-73
2023/05/07 11:53:19;;;;;;;22.70;20.23;;;18.80;99.90;;;;;;5014936;28;20046;-73
2023/05/07 11:55:45;;;;;;;;;;;18.80;99.90;;;;;;5025807;28;20137;-73
2023/05/07 11:58:12;;;;;;;22.17;19.97;;;18.80;99.90;;;;;;5024889;28;20008;-73
2023/05/07 12:00:38;;;;;;;;;;;18.80;99.90;;;;;;5018733;28;20053;-73
2023/05/07 12:03:04;;;;;;;21.73;19.57;;;18.90;99.90;;;;;;5026155;28;19939;-73
2023/05/07 12:05:49;;;;;;;22.50;20.02;;;19.00;99.90;;;;;;5027076;28;20120;-73
2023/05/07 12:08:18;;;;;;;23.38;21.08;;;19.00;99.90;;;;;;5026146;28;20553;-73
2023/05/07 12:10:45;;;;;;;22.00;19.88;;;19.10;99.90;;;;;;5026960;28;20038;-73
2023/05/07 12:13:15;;;;;;;22.13;19.73;;;19.10;99.90;;;;;;5025497;28;20045;-73
2023/05/07 12:15:42;;;;;;;21.02;19.13;;;19.20;99.90;;;;;;5021726;28;20130;-73
2023/05/07 12:18:08;;;;;;;20.85;18.67;;;19.30;99.90;;;;;;5025807;28;20047;-73
2023/05/07 12:20:36;;;;;;;20.65;18.65;;;19.40;99.90;;;;;;5025455;28;20045;-73
2023/05/07 12:23:02;;;;;;;20.75;18.75;;;19.50;99.90;;;;;;5026394;28;20469;-73
2023/05/07 12:25:38;;;;;;;20.95;18.88;;;19.60;99.90;;;;;;5023660;28;20041;-74